Time;durP1;ratioP1;P1;durP2;ratioP2;P2;SDS_P1;SDS_P2;PMS_P1;PMS_P2;Temp;Humidity;BMP_temperature;BMP_pressure;BME280_temperature;BME280_humidity;BME280_pressure;Samples;Min_cycle;Max_cycle;Signal;HPM_P1;HPM_P2
2021/01/16 00:00:55;;;;;;;10.63;6.70;;;;;;;0.33;78.18;98844.72;4980249;28;20861;-86
2021/01/16 00:03:38;;;;;;;9.53;5.63;;;;;;;0.11;78.13;98844.47;4980373;28;20316;-85
2021/01/16 00:06:06;;;;;;;10.70;6.20;;;;;;;0.18;78.48;98848.84;4975756;28;20239;-85
2021/01/16 00:08:32;;;;;;;8.87;5.90;;;;;;;0.19;78.34;98854.81;4978578;28;20250;-84
2021/01/16 00:11:00;;;;;;;9.30;5.80;;;;;;;0.21;78.28;98832.59;4976528;28;20223;-84
2021/01/16 00:13:27;;;;;;;9.83;6.67;;;;;;;0.23;77.93;98832.63;4978099;28;20786;-85
2021/01/16 00:15:55;;;;;;;9.53;6.17;;;;;;;0.30;78.03;98840.44;4979020;28;20296;-85
2021/01/16 00:18:22;;;;;;;9.60;6.33;;;;;;;0.36;77.95;98840.50;4980663;28;20330;-84
2021/01/16 00:20:49;;;;;;;9.93;6.20;;;;;;;0.37;78.05;98836.25;4979505;28;20303;-85
2021/01/16 00:23:49;;;;;;;8.90;6.00;;;;;;;0.30;77.43;98837.00;4980853;28;20218;-84
2021/01/16 00:26:15;;;;;;;8.77;5.73;;;;;;;0.34;77.65;98837.06;4972158;28;20216;-85
2021/01/16 00:48:31;;;;;;;9.27;5.43;;;;;;;0.25;77.09;98841.22;5283990;23;20240;-87
2021/01/16 00:51:05;;;;;;;9.50;5.73;;;;;;;0.13;75.83;98841.88;4961700;28;20591;-85
2021/01/16 00:53:32;;;;;;;9.00;5.63;;;;;;;0.17;77.07;98854.78;4965835;28;20239;-87
2021/01/16 00:55:58;;;;;;;7.80;4.90;;;;;;;0.05;77.16;98844.34;4962122;28;20233;-86
2021/01/16 00:58:29;;;;;;;10.90;7.50;;;;;;;0.03;77.56;98856.28;4966530;28;20232;-84
2021/01/16 01:00:55;;;;;;;11.03;6.40;;;;;;;0.06;76.99;98851.22;4963183;28;21004;-85
2021/01/16 01:04:07;;;;;;;10.97;5.83;;;;;;;-0.09;75.79;98843.28;4966198;28;20213;-86
2021/01/16 01:12:53;;;;;;;9.67;5.73;;;;;;;-0.02;76.51;98829.72;4923844;29;20714;-85
2021/01/16 01:15:19;;;;;;;9.20;5.73;;;;;;;0.03;76.12;98843.47;4917892;29;20327;-84
2021/01/16 01:17:50;;;;;;;9.17;5.40;;;;;;;0.04;75.81;98842.63;4938317;28;20252;-85
2021/01/16 01:20:16;;;;;;;9.33;6.00;;;;;;;-0.05;76.26;98838.22;4946553;28;20217;-86
2021/01/16 01:23:47;;;;;;;9.67;5.43;;;;;;;-0.13;76.05;98833.81;4989998;28;20833;-86
2021/01/16 01:26:17;;;;;;;8.57;5.00;;;;;;;-0.10;76.52;98849.25;4960617;28;20215;-86
2021/01/16 01:28:43;;;;;;;8.70;5.57;;;;;;;-0.02;76.01;98847.66;4988554;28;20322;-87
2021/01/16 01:31:09;;;;;;;8.43;4.90;;;;;;;0.02;76.25;98849.47;4986305;28;20222;-86
2021/01/16 01:33:36;;;;;;;7.97;5.30;;;;;;;0.03;76.33;98843.47;4990504;28;20216;-86
2021/01/16 01:36:02;;;;;;;7.93;5.20;;;;;;;0.05;76.31;98849.47;4987896;28;20386;-85
2021/01/16 01:38:28;;;;;;;8.13;5.23;;;;;;;0.11;75.91;98849.59;4988753;28;21085;-86
2021/01/16 01:40:59;;;;;;;8.47;5.53;;;;;;;0.15;76.15;98845.38;4991645;28;20246;-87
2021/01/16 01:43:26;;;;;;;8.47;5.33;;;;;;;0.23;76.10;98837.78;4993713;28;20261;-86
2021/01/16 01:45:53;;;;;;;8.60;5.80;;;;;;;0.21;76.06;98834.31;4995766;28;20311;-86
2021/01/16 01:48:19;;;;;;;9.17;5.70;;;;;;;0.22;75.71;98842.03;4995956;28;20366;-87
2021/01/16 01:50:45;;;;;;;9.93;6.17;;;;;;;0.18;76.18;98846.28;4995084;28;20269;-87
2021/01/16 01:53:13;;;;;;;8.30;5.70;;;;;;;0.25;76.56;98839.50;4994225;28;20859;-86
2021/01/16 01:55:41;;;;;;;9.87;5.80;;;;;;;0.32;76.26;98840.47;4995287;28;20235;-84
2021/01/16 01:58:08;;;;;;;8.10;4.77;;;;;;;0.38;76.19;98838.81;4995466;28;20239;-86
2021/01/16 02:00:35;;;;;;;9.23;5.70;;;;;;;0.29;75.48;98832.72;4998384;28;20994;-83
2021/01/16 02:03:02;;;;;;;9.43;6.10;;;;;;;0.22;76.38;98828.34;4999739;28;20219;-86
2021/01/16 02:05:29;;;;;;;6.97;5.27;;;;;;;0.27;76.18;98834.41;5001871;28;20226;-84
2021/01/16 02:07:55;;;;;;;7.33;4.90;;;;;;;0.31;75.84;98831.03;4999582;28;20246;-85
2021/01/16 02:10:23;;;;;;;6.90;5.00;;;;;;;0.34;75.72;98831.06;5001393;28;20313;-85
2021/01/16 02:12:51;;;;;;;7.77;5.27;;;;;;;0.34;76.17;98826.78;5000524;28;20602;-84
2021/01/16 02:15:25;;;;;;;10.40;5.33;;;;;;;0.37;76.13;98831.13;5001551;28;20293;-86
2021/01/16 02:17:55;;;;;;;9.87;6.23;;;;;;;0.36;75.68;98826.81;5000883;28;20240;-85
2021/01/16 02:20:27;;;;;;;8.23;5.47;;;;;;;0.34;75.67;98823.38;5002209;28;20219;-85
2021/01/16 02:23:16;;;;;;;9.50;5.70;;;;;;;0.37;75.79;98831.13;5001352;28;21137;-86
2021/01/16 02:26:07;;;;;;;8.47;5.53;;;;;;;0.42;75.97;98821.75;5000118;28;20215;-86
2021/01/16 02:28:36;;;;;;;10.03;6.03;;;;;;;0.46;75.51;98826.09;5001961;28;20247;-86
2021/01/16 02:31:03;;;;;;;8.37;5.67;;;;;;;0.51;75.81;98838.97;4999547;28;21177;-84
2021/01/16 02:33:30;;;;;;;8.10;5.80;;;;;;;0.47;75.83;98827.81;5001694;28;20222;-85
2021/01/16 02:36:01;;;;;;;9.10;6.23;;;;;;;0.49;75.56;98831.25;4997449;28;20250;-85
2021/01/16 02:38:33;;;;;;;9.40;5.77;;;;;;;0.46;75.88;98836.38;5000864;28;20265;-86
2021/01/16 02:41:02;;;;;;;11.20;5.60;;;;;;;0.46;75.95;98836.38;4998887;28;20208;-86
2021/01/16 02:43:32;;;;;;;9.77;5.90;;;;;;;0.47;76.07;98830.38;5000689;28;20318;-86
2021/01/16 02:46:16;;;;;;;10.33;5.97;;;;;;;0.51;75.52;98829.56;5000905;28;20222;-85
2021/01/16 02:48:55;;;;;;;11.60;7.23;;;;;;;0.55;75.79;98826.22;5001652;28;20246;-86
2021/01/16 02:51:27;;;;;;;10.43;6.70;;;;;;;0.58;75.40;98823.66;4999781;28;20223;-84
2021/01/16 02:53:54;;;;;;;10.37;6.57;;;;;;;0.58;75.28;98831.38;5000954;28;20292;-83
2021/01/16 02:56:25;;;;;;;10.67;5.97;;;;;;;0.45;75.44;98828.66;4999327;28;20251;-86
2021/01/16 02:58:51;;;;;;;10.03;6.47;;;;;;;0.47;75.54;98834.66;5001289;28;20948;-85
2021/01/16 03:01:18;;;;;;;10.43;6.10;;;;;;;0.40;75.90;98830.28;5000353;28;20214;-85
2021/01/16 03:03:44;;;;;;;8.80;6.03;;;;;;;0.39;75.76;98826.88;5000889;28;20849;-87
2021/01/16 03:06:12;;;;;;;9.73;6.10;;;;;;;0.46;75.89;98820.97;4997023;28;20634;-86
2021/01/16 03:08:39;;;;;;;8.90;6.43;;;;;;;0.51;75.77;98821.00;4998680;28;20235;-86
2021/01/16 03:11:07;;;;;;;12.83;7.50;;;;;;;0.57;75.85;98819.41;5000732;28;20246;-87
2021/01/16 03:13:33;;;;;;;10.37;6.77;;;;;;;0.64;75.53;98824.59;4999095;28;20215;-86
2021/01/16 03:16:04;;;;;;;12.27;7.20;;;;;;;0.62;75.22;98819.44;4999411;28;20239;-86
2021/01/16 03:18:32;;;;;;;12.23;7.20;;;;;;;0.61;75.52;98814.28;4999893;28;20236;-87
2021/01/16 03:20:59;;;;;;;11.43;6.70;;;;;;;0.59;75.70;98811.72;4997143;28;20212;-86
2021/01/16 03:23:25;;;;;;;11.33;6.57;;;;;;;0.61;75.34;98811.72;4999754;28;20675;-87
2021/01/16 03:25:52;;;;;;;12.00;7.17;;;;;;;0.51;75.28;98810.75;4995759;28;20874;-83
2021/01/16 03:28:18;;;;;;;12.10;7.47;;;;;;;0.51;75.70;98809.03;5000248;28;20243;-85
2021/01/16 03:30:44;;;;;;;11.77;7.10;;;;;;;0.60;75.39;98808.28;4999582;28;20826;-87
2021/01/16 03:33:10;;;;;;;12.90;7.80;;;;;;;0.62;75.68;98800.59;4996829;28;20215;-88
2021/01/16 03:35:38;;;;;;;11.17;7.23;;;;;;;0.46;76.03;98803.00;4995830;28;20243;-86
2021/01/16 03:38:04;;;;;;;10.97;7.10;;;;;;;0.49;76.23;98808.16;4999270;28;20235;-86
2021/01/16 03:40:30;;;;;;;11.63;7.87;;;;;;;0.57;76.00;98810.84;4996064;28;20215;-85
2021/01/16 03:42:56;;;;;;;11.50;6.93;;;;;;;0.62;75.53;98818.59;4998381;28;20212;-88
2021/01/16 03:45:23;;;;;;;14.10;7.80;;;;;;;0.55;76.11;98810.81;4998243;28;20265;-84
2021/01/16 03:47:49;;;;;;;12.97;8.50;;;;;;;0.54;75.84;98819.34;4999125;28;20330;-85
2021/01/16 03:50:16;;;;;;;13.47;7.67;;;;;;;0.43;75.89;98810.66;4999538;28;20219;-87
2021/01/16 03:52:43;;;;;;;14.20;8.97;;;;;;;0.35;75.98;98813.13;4998068;28;20224;-86
2021/01/16 03:55:10;;;;;;;18.33;9.93;;;;;;;0.31;76.84;98811.38;4996097;28;20235;-86
2021/01/16 03:57:37;;;;;;;14.37;8.20;;;;;;;0.31;76.60;98816.50;4999469;28;20231;-86
2021/01/16 04:00:06;;;;;;;14.97;9.07;;;;;;;0.27;77.12;98819.00;4999948;28;20246;-87
2021/01/16 04:02:32;;;;;;;13.20;8.57;;;;;;;0.26;77.04;98822.38;4999834;28;20230;-87
2021/01/16 04:04:58;;;;;;;14.50;8.30;;;;;;;0.03;77.50;98810.13;4997626;28;20224;-88
2021/01/16 04:07:24;;;;;;;13.90;8.27;;;;;;;0.09;77.95;98805.09;4997759;28;20227;-86
2021/01/16 04:09:51;;;;;;;13.70;9.23;;;;;;;0.07;77.10;98822.13;4997911;28;20285;-87
2021/01/16 04:12:18;;;;;;;14.13;8.43;;;;;;;0.04;77.60;98806.72;4997158;28;20215;-85
2021/01/16 04:14:44;;;;;;;14.77;8.60;;;;;;;0.07;77.29;98816.16;4999745;28;20342;-86
2021/01/16 04:17:10;;;;;;;13.07;7.10;;;;;;;-0.15;78.80;98810.72;4995389;28;20243;-86
2021/01/16 04:19:37;;;;;;;9.10;5.13;;;;;;;-0.24;79.50;98811.47;4999400;28;20250;-87
2021/01/16 04:22:03;;;;;;;14.67;9.00;;;;;;;-0.06;78.37;98810.00;4999592;28;20218;-85
2021/01/16 04:24:30;;;;;;;15.60;9.97;;;;;;;-0.17;78.47;98798.72;4999114;28;20223;-87
2021/01/16 04:26:57;;;;;;;17.17;10.17;;;;;;;-0.11;78.42;98801.34;4999210;28;20622;-85
2021/01/16 04:29:23;;;;;;;13.63;8.00;;;;;;;-0.18;79.16;98803.00;4998446;28;20979;-86
2021/01/16 04:31:50;;;;;;;15.63;8.83;;;;;;;-0.18;79.48;98807.22;4996072;28;20230;-86
2021/01/16 04:34:16;;;;;;;15.70;8.80;;;;;;;-0.16;78.64;98813.28;4999161;28;20297;-87
2021/01/16 04:36:43;;;;;;;15.37;9.00;;;;;;;-0.09;78.39;98813.38;4999336;28;20243;-86
2021/01/16 04:39:09;;;;;;;15.97;9.60;;;;;;;-0.10;78.45;98809.06;4996116;28;20301;-85
2021/01/16 04:41:35;;;;;;;13.53;8.03;;;;;;;-0.15;78.96;98809.84;4999175;28;20219;-87
2021/01/16 04:44:03;;;;;;;14.33;8.57;;;;;;;-0.26;78.78;98809.69;4998455;28;20684;-87
2021/01/16 04:46:29;;;;;;;14.53;7.30;;;;;;;-0.30;79.91;98819.03;4997266;28;20512;-85
2021/01/16 04:48:58;;;;;;;13.47;7.10;;;;;;;-0.30;79.39;98811.34;4997863;28;20728;-87
2021/01/16 04:51:25;;;;;;;12.90;7.97;;;;;;;-0.21;79.47;98815.75;4997590;28;20215;-85
2021/01/16 04:53:52;;;;;;;12.97;7.37;;;;;;;-0.22;79.09;98808.88;4998500;28;20226;-87
2021/01/16 04:56:19;;;;;;;12.70;7.97;;;;;;;-0.20;78.89;98813.22;4998095;28;20258;-85
2021/01/16 04:58:45;;;;;;;14.33;9.00;;;;;;;-0.11;78.82;98811.63;4998698;28;20239;-86
2021/01/16 05:01:13;;;;;;;14.30;8.77;;;;;;;-0.04;78.67;98821.13;4995848;28;20238;-86
2021/01/16 05:03:41;;;;;;;15.97;9.27;;;;;;;0.01;78.40;98816.94;4996158;28;20216;-87
2021/01/16 05:06:09;;;;;;;14.50;8.93;;;;;;;0.09;78.06;98819.59;4998289;28;20226;-86
2021/01/16 05:08:38;;;;;;;14.47;8.73;;;;;;;0.09;77.66;98807.66;4997581;28;20669;-86
2021/01/16 05:11:06;;;;;;;13.20;8.50;;;;;;;0.04;77.95;98806.72;4997964;28;20223;-85
2021/01/16 05:13:43;;;;;;;13.87;8.50;;;;;;;-0.02;77.36;98822.00;4997947;28;20228;-87
2021/01/16 05:16:12;;;;;;;12.97;8.17;;;;;;;-0.05;78.16;98816.84;4999027;28;20249;-85
2021/01/16 05:18:42;;;;;;;15.20;8.23;;;;;;;-0.07;77.77;98813.41;4995930;28;20833;-87
2021/01/16 05:21:09;;;;;;;13.87;8.30;;;;;;;-0.16;78.34;98815.84;4995363;28;20215;-87
2021/01/16 05:23:41;;;;;;;11.83;7.40;;;;;;;-0.28;78.25;98813.94;4997312;28;20211;-86
2021/01/16 05:26:07;;;;;;;13.03;6.83;;;;;;;-0.18;77.92;98809.78;4999039;28;20334;-87
2021/01/16 05:28:33;;;;;;;14.17;7.97;;;;;;;-0.16;77.89;98809.00;4998119;28;20350;-86
2021/01/16 05:31:00;;;;;;;13.10;7.67;;;;;;;-0.07;77.69;98810.84;4996597;28;20276;-86
2021/01/16 05:33:28;;;;;;;12.73;7.60;;;;;;;-0.15;77.44;98812.41;4997633;28;20227;-87
2021/01/16 05:35:56;;;;;;;14.80;8.47;;;;;;;-0.08;77.81;98821.94;4997686;28;21073;-85
2021/01/16 05:38:24;;;;;;;12.30;7.50;;;;;;;-0.11;77.90;98816.75;5001091;28;20901;-85
2021/01/16 05:40:50;;;;;;;12.97;7.20;;;;;;;-0.16;78.39;98818.41;5000669;28;20227;-87
2021/01/16 05:43:19;;;;;;;12.17;7.53;;;;;;;-0.19;76.92;98814.06;5002088;28;20215;-86
2021/01/16 05:45:46;;;;;;;11.73;6.80;;;;;;;-0.28;76.98;98819.91;5001815;28;20269;-86
2021/01/16 05:48:13;;;;;;;11.87;7.13;;;;;;;-0.23;76.66;98812.31;4998078;28;20238;-87
2021/01/16 05:50:41;;;;;;;11.10;6.20;;;;;;;-0.29;76.89;98810.53;5002011;28;20357;-87
2021/01/16 05:53:07;;;;;;;11.53;6.40;;;;;;;-0.32;76.99;98823.28;5002043;28;20219;-87
2021/01/16 05:55:34;;;;;;;11.83;6.83;;;;;;;-0.36;76.91;98821.50;5001993;28;20239;-85
2021/01/16 05:58:04;;;;;;;11.80;6.67;;;;;;;-0.31;76.44;98819.88;5000804;28;20241;-86
2021/01/16 06:00:36;;;;;;;11.73;6.87;;;;;;;-0.36;76.04;98824.06;5002920;28;20986;-86
2021/01/16 06:03:02;;;;;;;10.90;6.30;;;;;;;-0.27;76.82;98816.53;4986834;28;20246;-87
2021/01/16 06:05:29;;;;;;;12.23;6.57;;;;;;;-0.32;75.93;98815.59;5002666;28;20676;-86
2021/01/16 06:07:56;;;;;;;11.50;6.23;;;;;;;-0.25;76.22;98817.41;5004117;28;20239;-86
2021/01/16 06:10:23;;;;;;;9.47;5.67;;;;;;;-0.36;75.26;98821.50;5003207;28;20227;-85
2021/01/16 06:12:51;;;;;;;12.40;6.87;;;;;;;-0.44;75.46;98815.38;5003831;28;20218;-86
2021/01/16 06:15:18;;;;;;;8.63;5.20;;;;;;;-0.50;75.06;98818.72;5003014;28;20298;-87
2021/01/16 06:17:47;;;;;;;11.03;6.57;;;;;;;-0.47;74.43;98817.91;5004265;28;20208;-84
2021/01/16 06:20:15;;;;;;;12.63;6.23;;;;;;;-0.51;74.35;98822.13;5002915;28;20207;-87
2021/01/16 06:22:42;;;;;;;10.77;6.20;;;;;;;-0.46;74.49;98827.31;5003570;28;20231;-85
2021/01/16 06:25:18;;;;;;;9.80;6.03;;;;;;;-0.49;74.50;98829.84;5001202;28;20768;-86
2021/01/16 06:27:45;;;;;;;12.00;6.00;;;;;;;-0.62;74.53;98827.06;5002682;28;20215;-86
2021/01/16 06:30:14;;;;;;;11.60;6.30;;;;;;;-0.55;74.25;98829.72;5000794;28;20227;-87
2021/01/16 06:32:47;;;;;;;11.67;6.93;;;;;;;-0.64;73.78;98835.59;5003862;28;20872;-85
2021/01/16 06:35:14;;;;;;;10.53;6.73;;;;;;;-0.50;73.69;98833.25;5001726;28;20215;-87
2021/01/16 06:37:44;;;;;;;11.27;6.87;;;;;;;-0.54;73.79;98829.75;5004043;28;20215;-87
2021/01/16 06:40:11;;;;;;;8.57;5.00;;;;;;;-0.46;73.79;98820.50;5001280;28;20298;-87
2021/01/16 06:42:39;;;;;;;12.57;7.20;;;;;;;-0.59;74.20;98824.56;5000856;28;20684;-88
2021/01/16 06:45:07;;;;;;;6.67;3.10;;;;;;;-0.75;73.97;98825.16;5003706;28;20215;-88
2021/01/16 06:47:34;;;;;;;12.53;6.67;;;;;;;-0.66;73.58;98825.31;5002437;28;20219;-86
2021/01/16 06:50:00;;;;;;;12.10;7.00;;;;;;;-0.66;73.87;98825.31;5003936;28;20688;-87
2021/01/16 06:52:34;;;;;;;12.27;7.37;;;;;;;-0.64;73.99;98833.88;5003336;28;20704;-86
2021/01/16 06:55:03;;;;;;;10.63;7.03;;;;;;;-0.53;73.64;98828.03;5002562;28;20226;-87
2021/01/16 06:57:31;;;;;;;10.93;4.53;;;;;;;-0.64;73.57;98828.75;5004035;28;20668;-85
2021/01/16 07:00:00;;;;;;;12.60;7.07;;;;;;;-0.52;73.31;98819.53;5003698;28;20234;-85
2021/01/16 07:02:28;;;;;;;10.10;6.10;;;;;;;-0.45;73.70;98831.63;5003280;28;20671;-87
2021/01/16 07:04:56;;;;;;;11.33;6.60;;;;;;;-0.36;73.17;98831.75;5002268;28;20309;-86
2021/01/16 07:07:31;;;;;;;9.60;5.80;;;;;;;-0.57;72.65;98834.81;5003476;28;20274;-87
2021/01/16 07:10:00;;;;;;;12.13;6.27;;;;;;;-0.55;73.38;98832.28;5001268;28;20292;-86
2021/01/16 07:12:26;;;;;;;9.53;6.13;;;;;;;-0.61;73.37;98825.38;5003389;28;20673;-88
2021/01/16 07:14:52;;;;;;;11.87;6.57;;;;;;;-0.52;73.48;98829.78;5001230;28;20280;-88
2021/01/16 07:17:23;;;;;;;10.23;6.53;;;;;;;-0.60;73.15;98827.97;5000007;28;20242;-87
2021/01/16 07:19:49;;;;;;;10.93;5.20;;;;;;;-0.59;73.00;98823.69;5002660;28;20243;-86
2021/01/16 07:22:16;;;;;;;12.60;6.90;;;;;;;-0.62;73.27;98827.06;5004046;28;20241;-85
2021/01/16 07:24:44;;;;;;;13.47;7.07;;;;;;;-0.66;72.91;98824.41;5002585;28;20817;-87
2021/01/16 07:27:12;;;;;;;11.30;6.90;;;;;;;-0.56;72.78;98822.91;5002778;28;20306;-87
2021/01/16 07:29:39;;;;;;;10.33;6.47;;;;;;;-0.55;73.32;98825.50;5000279;28;20236;-86
2021/01/16 07:32:14;;;;;;;11.43;6.77;;;;;;;-0.56;73.48;98817.78;5002937;28;20251;-88
2021/01/16 07:34:43;;;;;;;10.23;5.93;;;;;;;-0.54;72.84;98823.78;5002368;28;20218;-87
2021/01/16 07:37:09;;;;;;;10.20;5.57;;;;;;;-0.67;73.26;98831.25;5002921;28;20243;-88
2021/01/16 07:39:38;;;;;;;11.20;6.47;;;;;;;-0.56;72.74;98828.88;4998180;28;20239;-85
2021/01/16 07:42:11;;;;;;;10.43;6.40;;;;;;;-0.66;72.15;98821.84;5002476;28;20219;-86
2021/01/16 07:44:44;;;;;;;12.97;7.33;;;;;;;-0.55;71.91;98819.47;5001797;28;20224;-87
2021/01/16 07:47:21;;;;;;;12.73;7.83;;;;;;;-0.44;72.40;98820.50;5002947;28;20298;-87
2021/01/16 07:49:54;;;;;;;10.73;5.80;;;;;;;-0.31;72.35;98813.88;5002285;28;20566;-88
2021/01/16 07:52:28;;;;;;;9.70;5.60;;;;;;;-0.47;72.38;98818.78;5001808;28;20212;-88
2021/01/16 07:55:07;;;;;;;20.40;12.43;;;;;;;-0.43;72.26;98814.56;5001190;28;20760;-87
2021/01/16 07:57:34;;;;;;;17.87;10.73;;;;;;;-0.40;72.40;98819.75;5001833;28;20239;-87
2021/01/16 08:00:18;;;;;;;10.57;6.70;;;;;;;-0.28;72.04;98812.22;5000075;28;20223;-87
2021/01/16 08:03:13;;;;;;;12.77;6.67;;;;;;;-0.14;71.95;98817.56;5002329;28;20890;-87
2021/01/16 08:05:48;;;;;;;10.00;6.43;;;;;;;-0.06;71.94;98812.56;4988057;28;20218;-85
2021/01/16 08:08:26;;;;;;;10.87;6.37;;;;;;;-0.08;70.61;98816.81;5000834;28;20356;-87
2021/01/16 08:10:54;;;;;;;10.37;6.30;;;;;;;-0.11;71.16;98816.75;5002319;28;20222;-87
2021/01/16 08:13:22;;;;;;;9.30;6.40;;;;;;;-0.07;70.97;98818.53;5001534;28;20212;-88
2021/01/16 08:15:50;;;;;;;9.57;5.10;;;;;;;-0.07;70.50;98818.53;5001170;28;20235;-87
2021/01/16 08:18:18;;;;;;;9.50;5.20;;;;;;;-0.27;70.08;98820.81;5002288;28;20236;-88
2021/01/16 08:20:46;;;;;;;9.40;5.33;;;;;;;-0.27;70.30;98816.53;5002503;28;20665;-86
2021/01/16 08:23:22;;;;;;;8.43;4.60;;;;;;;-0.50;68.56;98807.59;4998560;28;20276;-87
2021/01/16 08:25:48;;;;;;;7.70;5.13;;;;;;;-0.43;69.05;98819.69;5001602;28;20246;-88
2021/01/16 08:28:23;;;;;;;8.70;4.33;;;;;;;-0.49;67.51;98814.47;5000182;28;20243;-86
2021/01/16 08:30:50;;;;;;;9.43;5.67;;;;;;;-0.41;68.54;98807.75;5001643;28;20670;-85
2021/01/16 08:33:16;;;;;;;8.10;5.03;;;;;;;-0.42;69.07;98806.03;4996268;28;20598;-84
2021/01/16 08:35:44;;;;;;;9.03;5.30;;;;;;;-0.38;68.42;98812.94;5001922;28;20833;-85
2021/01/16 08:38:25;;;;;;;7.87;4.93;;;;;;;-0.32;67.95;98812.16;4998800;28;20998;-85
2021/01/16 08:41:05;;;;;;;8.23;4.90;;;;;;;-0.30;67.66;98815.63;4999592;28;20234;-86
2021/01/16 08:43:34;;;;;;;8.83;4.80;;;;;;;-0.43;67.71;98815.41;5002218;28;20218;-88
2021/01/16 08:46:14;;;;;;;7.47;4.70;;;;;;;-0.67;65.80;98820.16;4999144;28;20212;-85
2021/01/16 08:48:42;;;;;;;6.60;4.13;;;;;;;-0.56;67.73;98822.91;5000530;28;20790;-86
2021/01/16 08:51:33;;;;;;;8.03;4.87;;;;;;;-0.69;68.39;98827.81;4998675;28;21035;-86
2021/01/16 08:54:21;;;;;;;7.97;5.10;;;;;;;-0.51;66.34;98805.91;5000417;28;20215;-86
2021/01/16 08:56:48;;;;;;;6.47;4.53;;;;;;;-0.55;68.07;98810.13;4992705;28;20231;-88
2021/01/16 08:59:22;;;;;;;5.27;3.27;;;;;;;-0.60;67.49;98815.16;4998027;28;20326;-87
2021/01/16 09:01:51;;;;;;;8.40;5.23;;;;;;;-0.48;67.05;98817.06;5000536;28;20254;-87
2021/01/16 09:04:24;;;;;;;7.23;5.07;;;;;;;-0.39;67.75;98821.44;5000331;28;20219;-84
2021/01/16 09:06:52;;;;;;;8.77;5.00;;;;;;;-0.37;67.24;98814.66;5000803;28;20219;-85
2021/01/16 09:09:25;;;;;;;9.07;5.20;;;;;;;-0.46;66.73;98820.50;5000613;28;20235;-86
2021/01/16 09:12:05;;;;;;;8.60;4.87;;;;;;;-0.42;66.97;98817.16;4999658;28;20216;-86
2021/01/16 09:14:32;;;;;;;9.03;5.50;;;;;;;-0.32;67.86;98822.44;5001296;28;20231;-86
2021/01/16 09:17:14;;;;;;;8.13;5.43;;;;;;;-0.22;66.79;98829.41;5000964;28;20235;-86
2021/01/16 09:19:41;;;;;;;9.10;5.13;;;;;;;-0.16;67.91;98836.34;4998763;28;20242;-86
2021/01/16 09:22:20;;;;;;;8.77;5.40;;;;;;;-0.09;67.55;98838.16;4999866;28;20223;-87
2021/01/16 09:24:47;;;;;;;8.33;5.13;;;;;;;-0.01;67.76;98836.56;5000721;28;20212;-86
2021/01/16 09:27:24;;;;;;;8.43;5.40;;;;;;;-0.02;67.02;98838.28;4998897;28;20211;-85
2021/01/16 09:29:50;;;;;;;7.50;4.83;;;;;;;-0.02;68.01;98832.28;5000630;28;20719;-85
2021/01/16 09:32:31;;;;;;;9.50;5.73;;;;;;;-0.07;66.45;98831.38;5000406;28;20635;-87
2021/01/16 09:34:57;;;;;;;7.73;4.83;;;;;;;-0.03;67.57;98835.69;4997598;28;20298;-85
2021/01/16 09:37:24;;;;;;;8.67;5.07;;;;;;;-0.01;67.29;98829.72;5001045;28;20239;-85
2021/01/16 09:40:01;;;;;;;8.30;5.23;;;;;;;-0.13;65.56;98833.81;4998494;28;20239;-84
2021/01/16 09:42:28;;;;;;;7.70;5.20;;;;;;;-0.07;67.38;98833.94;5001081;28;20800;-86
2021/01/16 09:44:55;;;;;;;9.80;5.27;;;;;;;-0.16;67.28;98829.50;5000463;28;20629;-86
2021/01/16 09:47:44;;;;;;;8.80;5.43;;;;;;;-0.10;66.51;98829.59;5000171;28;20900;-86
2021/01/16 09:50:11;;;;;;;10.53;5.93;;;;;;;-0.02;67.61;98837.41;4997971;28;20306;-86
2021/01/16 09:52:45;;;;;;;10.13;5.43;;;;;;;0.08;67.58;98831.56;4999619;28;20250;-87
2021/01/16 09:55:19;;;;;;;9.97;5.63;;;;;;;0.15;67.05;98825.69;5001404;28;20235;-87
2021/01/16 09:57:45;;;;;;;9.27;5.23;;;;;;;0.19;67.72;98830.00;5000683;28;20265;-87
2021/01/16 10:00:13;;;;;;;9.53;5.57;;;;;;;0.09;67.60;98825.63;4999870;28;20229;-87
2021/01/16 10:02:40;;;;;;;8.67;5.43;;;;;;;0.22;67.43;98825.75;4999870;28;20227;-86
2021/01/16 10:05:09;;;;;;;7.93;5.20;;;;;;;0.22;67.47;98825.75;5000641;28;20225;-87
2021/01/16 10:07:39;;;;;;;8.67;5.43;;;;;;;0.24;66.91;98816.38;4999694;28;20259;-87
2021/01/16 10:10:17;;;;;;;7.53;5.37;;;;;;;0.25;67.48;98820.69;4996037;28;20220;-84
2021/01/16 10:12:45;;;;;;;9.03;5.60;;;;;;;0.34;67.46;98807.97;4997494;28;20261;-85
2021/01/16 10:15:14;;;;;;;9.73;6.30;;;;;;;0.45;67.26;98814.09;4997100;28;20204;-84
2021/01/16 10:17:45;;;;;;;11.10;6.20;;;;;;;0.50;67.47;98802.19;4998150;28;20247;-84
2021/01/16 10:20:14;;;;;;;8.83;5.33;;;;;;;0.58;67.74;98804.84;5000312;28;20277;-85
2021/01/16 10:22:47;;;;;;;8.53;5.27;;;;;;;0.53;66.82;98801.34;5000695;28;20298;-85
2021/01/16 10:25:15;;;;;;;10.07;5.90;;;;;;;0.49;67.16;98795.31;5002222;28;20220;-85
2021/01/16 10:27:44;;;;;;;9.03;6.03;;;;;;;0.48;67.13;98787.59;5002250;28;20655;-87
2021/01/16 10:30:19;;;;;;;9.43;5.60;;;;;;;0.47;66.30;98781.59;5003383;28;20219;-87
2021/01/16 10:32:46;;;;;;;9.17;5.97;;;;;;;0.45;66.98;98783.28;5004315;28;20678;-88
2021/01/16 10:35:21;;;;;;;9.70;6.07;;;;;;;0.17;67.10;98782.97;5000436;28;20220;-87
2021/01/16 10:37:48;;;;;;;9.67;5.90;;;;;;;0.33;67.64;98772.88;5002984;28;20242;-87
2021/01/16 10:40:14;;;;;;;10.07;5.67;;;;;;;0.27;67.62;98775.38;5001619;28;20215;-87
2021/01/16 10:42:42;;;;;;;8.70;4.90;;;;;;;0.26;67.61;98771.06;4998097;28;20219;-88
2021/01/16 10:45:11;;;;;;;10.97;6.73;;;;;;;0.19;67.64;98765.88;5002684;28;20216;-86
2021/01/16 10:47:38;;;;;;;10.50;6.60;;;;;;;0.12;67.79;98769.19;5003866;28;20244;-89
2021/01/16 10:50:08;;;;;;;8.40;5.13;;;;;;;0.10;67.33;98768.31;5003216;28;20277;-86
2021/01/16 10:52:35;;;;;;;10.20;6.07;;;;;;;0.29;68.04;98759.13;5003964;28;20227;-86
2021/01/16 10:55:05;;;;;;;7.67;5.53;;;;;;;0.44;67.76;98755.94;5001862;28;20233;-89
2021/01/16 10:57:42;;;;;;;8.97;5.40;;;;;;;0.55;68.01;98749.19;5003017;28;20243;-87
2021/01/16 11:00:12;;;;;;;9.40;6.13;;;;;;;0.56;67.86;98745.78;4997306;28;20723;-88
2021/01/16 11:02:41;;;;;;;9.50;6.37;;;;;;;0.52;68.00;98749.16;4999204;28;20262;-87
2021/01/16 11:05:26;;;;;;;11.03;6.27;;;;;;;0.60;67.28;98746.66;5000595;28;20727;-89
2021/01/16 11:07:55;;;;;;;8.10;5.50;;;;;;;0.66;67.72;98736.47;5002230;28;20727;-88
2021/01/16 11:10:32;;;;;;;7.70;5.27;;;;;;;0.69;67.84;98735.63;5003794;28;20297;-88
2021/01/16 11:13:17;;;;;;;11.50;6.73;;;;;;;0.73;67.75;98737.38;4999036;28;20215;-86
2021/01/16 11:15:44;;;;;;;8.37;6.10;;;;;;;0.82;67.86;98721.22;4999629;28;20226;-87
2021/01/16 11:18:27;;;;;;;9.83;6.57;;;;;;;0.82;67.43;98729.78;5001528;28;20239;-85
2021/01/16 11:20:59;;;;;;;9.77;5.80;;;;;;;0.85;67.70;98721.25;5002491;28;20804;-86
2021/01/16 11:23:36;;;;;;;9.23;5.63;;;;;;;0.69;66.44;98717.66;4998047;28;20216;-85
2021/01/16 11:26:09;;;;;;;9.67;5.73;;;;;;;0.72;66.66;98717.72;4997809;28;20307;-86
2021/01/16 11:28:50;;;;;;;11.97;7.50;;;;;;;0.81;67.12;98715.22;5003141;28;20240;-84
2021/01/16 11:31:28;;;;;;;11.20;6.80;;;;;;;0.62;66.68;98715.88;5000069;28;20216;-87
2021/01/16 11:34:20;;;;;;;8.33;5.50;;;;;;;0.29;67.55;98715.50;5001547;28;20285;-86
2021/01/16 11:36:54;;;;;;;8.57;5.50;;;;;;;0.26;67.27;98705.25;5002818;28;20254;-86
2021/01/16 11:39:41;;;;;;;8.70;5.30;;;;;;;0.31;66.90;98705.28;4999952;28;20235;-87
2021/01/16 11:42:07;;;;;;;10.40;6.93;;;;;;;0.32;67.01;98702.72;5001335;28;20239;-88
2021/01/16 11:44:48;;;;;;;10.60;6.37;;;;;;;0.21;66.87;98698.34;5001702;28;20610;-84
2021/01/16 11:47:16;;;;;;;10.43;6.27;;;;;;;0.08;66.96;98700.75;5000728;28;20285;-84
2021/01/16 11:49:44;;;;;;;10.07;5.87;;;;;;;0.18;66.32;98689.75;5002790;28;20250;-86
2021/01/16 11:52:10;;;;;;;9.10;5.97;;;;;;;0.24;66.22;98695.78;4999048;28;20302;-86
2021/01/16 11:54:37;;;;;;;9.63;6.90;;;;;;;0.26;65.95;98694.09;5001359;28;20255;-84
2021/01/16 11:57:03;;;;;;;9.33;4.97;;;;;;;-0.02;65.51;98698.91;4997841;28;20232;-85
2021/01/16 11:59:30;;;;;;;19.07;9.60;;;;;;;-0.04;65.73;98698.03;5000246;28;20239;-85
2021/01/16 12:01:58;;;;;;;10.50;6.00;;;;;;;-0.13;65.62;98688.53;5001827;28;20215;-87
2021/01/16 12:04:26;;;;;;;15.17;7.50;;;;;;;-0.49;65.06;98681.19;5001683;28;20230;-86
2021/01/16 12:06:53;;;;;;;6.40;3.10;;;;;;;-0.39;66.18;98677.91;5001845;28;20219;-86
2021/01/16 12:09:21;;;;;;;11.80;5.00;;;;;;;-0.45;66.30;98677.84;5000300;28;20251;-84
2021/01/16 12:11:52;;;;;;;7.23;5.13;;;;;;;-0.49;65.47;98673.50;5002637;28;21024;-86
2021/01/16 12:14:18;;;;;;;7.73;3.77;;;;;;;-0.51;66.49;98675.19;5000376;28;20224;-87